Overview Statistics Trail Chart Weather Telemetry Raw packets
 

This is the latest recevied weather packets stored in our database for station/object SP6YY-15. If no packets are shown the sender has not sent any weather packets the latest 10 day(s).

<< 1 2 3 4 5 >>
Time Temp. Humidity Pressure Rain* Wind** Luminosity Snow
1777879359 30° C 23% 1000.7 hPa - - - -
1777879059 30° C 23% 1000.7 hPa - - - -
1777878759 30° C 23% 1000.8 hPa - - - -
1777878458 30.56° C 23% 1000.6 hPa - - - -
1777878143 30.56° C 23% 1000.7 hPa - - - -
1777877844 31.11° C 23% 1000.6 hPa - - - -
1777877554 32.22° C 22% 1000.7 hPa - - - -
1777877244 33.33° C 22% 1000.6 hPa - - - -
1777876944 35.56° C 20% 1000.7 hPa - - - -
1777875728 35° C 21% 1001.2 hPa - - - -
1777875427 33.89° C 22% 1000.8 hPa - - - -
1777583638 26.67° C 17% 997.2 hPa - - - -
1777564985 45° C 7% 1014 hPa - - - -
1777564684 46.11° C 7% 1013.9 hPa - - - -
1777564084 48.33° C 7% 1013.7 hPa - - - -
1777563784 49.44° C 7% 1014.5 hPa - - - -
1777563182 48.89° C 9% 1014.6 hPa - - - -
1777562886 49.44° C 9% 1014.7 hPa - - - -
1777562582 50° C 9% 1014.7 hPa - - - -
1777562282 50° C 9% 1014.7 hPa - - - -
1777561982 50.56° C 9% 1014.7 hPa - - - -
1777561682 51.11° C 9% 1014.8 hPa - - - -
1777561382 51.67° C 9% 1014.7 hPa - - - -
1777561081 52.22° C 9% 1014.9 hPa - - - -
1777560781 52.22° C 9% 1014.9 hPa - - - -

* Rain since midnight (hover to see other rain measurements)
** Current wind speed in m/s (hover to see current wind gust speed)